This demonstration page uses our WeatherBlox Daily Observations layout. Learn more.

36.17497, -115.13722

Hourly Observations for October 7, 2018

Temp ( °F °C ) Dew Point ( °F °C ) Humidity (%) Winds ( mph kmh ) Pressure ( in mb ) Visibility ( mi km ) Precip ( " mm )
12:53 am 00:53 Clear 65 18.3 40 4.4 40 40 NNE 15 24 29.71 1006 10 16.09344 0 0
1:53 am 01:53 Mostly Clear 63 17.2 40 4.4 43 43 N 8 13 29.71 1006 10 16.09344 0 0
2:53 am 02:53 Mostly Clear 63 17.2 39 3.9 41 41 N 10 17 29.71 1006 10 16.09344 0 0
3:53 am 03:53 Clear 62 16.7 38 3.3 41 41 NNW 14 22 29.71 1006 10 16.09344 0 0
4:53 am 04:53 Partly Cloudy 62 16.7 37 2.8 40 40 NNW 14 22 29.71 1006 10 16.09344 0 0
5:53 am 05:53 Cloudy 61 16.1 38 3.3 43 43 N 13 20 29.71 1006 10 16.09344 0 0
6:53 am 06:53 Cloudy 62 16.7 38 3.3 41 41 NNW 18 30 29.74 1007 10 16.09344 0 0
7:53 am 07:53 Cloudy with Light Rain 61 16.1 43 6.1 52 52 NNE 5 7 29.77 1008 9 14.484096 0.001 0.001
8:53 am 08:53 Cloudy 61 16.1 41 5 48 48 NW 16 26 29.77 1008 10 16.09344 0.001 0.001
9:53 am 09:53 Cloudy 63 17.2 38 3.3 40 40 NNW 17 28 29.77 1008 10 16.09344 0 0
10:53 am 10:53 Cloudy 64 17.8 36 2.2 35 35 NNW 16 26 29.8 1009 10 16.09344 0 0
11:53 am 11:53 Mostly Cloudy 66 18.9 35 1.7 32 32 NNW 21 33 29.77 1008 10 16.09344 0 0
12:53 pm 12:53 Partly Cloudy 67 19.4 34 1.1 30 30 NW 15 24 29.77 1008 10 16.09344 0 0
1:53 pm 13:53 Partly Cloudy 69 20.6 34 1.1 27 27 N 15 24 29.74 1007 10 16.09344 0 0
2:53 pm 14:53 Cloudy 68 20 34 1.1 28 28 N 10 17 29.74 1007 10 16.09344 0 0
3:53 pm 15:53 Mostly Cloudy 67 19.4 35 1.7 31 31 ESE 9 15 29.77 1008 10 16.09344 0 0
4:53 pm 16:53 Cloudy 67 19.4 35 1.7 31 31 SE 9 15 29.77 1008 10 16.09344 0 0
5:53 pm 17:53 Cloudy 67 19.4 37 2.8 33 33 ESE 8 13 29.77 1008 10 16.09344 0 0
6:53 pm 18:53 Cloudy 66 18.9 38 3.3 36 36 SE 5 7 29.77 1008 10 16.09344 0 0
7:53 pm 19:53 Cloudy 65 18.3 39 3.9 39 39 S 6 9 29.8 1009 10 16.09344 0 0
8:53 pm 20:53 Cloudy 65 18.3 40 4.4 40 40 S 5 7 29.8 1009 10 16.09344 0 0
9:53 pm 21:53 Cloudy 63 17.2 41 5 45 45 ESE 3 6 29.8 1009 10 16.09344 0 0
10:53 pm 22:53 Mostly Cloudy 63 17.2 41 5 45 45 E 3 6 29.8 1009 10 16.09344 0 0
11:53 pm 23:53 Cloudy 63 17.2 41 5 45 45 Calm 29.8 1009 10 16.09344 0 0

Powered by AerisWeather